Monday, October 16, 2017, 8:10 PM EDT
Back to Local

KDUJ, Du Bois-jefferson County

Location: Reynoldsville, PA, United States Lat: 41.183
Local Time: 8:10 PM EDT ( 0:10 GMT) Lon: -78.883
Time Zone: US/Eastern Elev: 1820 ft

Show me the last for .
Show Decoded

2017-10-16 19:53 METAR KDUJ 162353Z AUTO 32004KT 10SM CLR 06/M02 A3023 RMK AO2 SLP246 T00561022
                 10122 20056 53017 =
2017-10-16 18:53 METAR KDUJ 162253Z AUTO 31004KT 10SM CLR 07/M03 A3021 RMK AO2 SLP239 T00671028 =
2017-10-16 17:53 METAR KDUJ 162153Z AUTO 32014G18KT 10SM CLR 09/M03 A3020 RMK AO2 SLP232
                 T00941033 =
2017-10-16 16:53 METAR KDUJ 162053Z AUTO 33011G20KT 10SM CLR 11/M03 A3018 RMK AO2 SLP224
                 T01061028 53004 =
2017-10-16 15:53 METAR KDUJ 161953Z AUTO 31012G21KT 280V340 10SM CLR 11/M02 A3017 RMK AO2 SLP220
                 T01111022 =
2017-10-16 14:53 METAR KDUJ 161853Z AUTO 32009KT 10SM SCT046 11/00 A3016 RMK AO2 SLP218 T01060000
                 =
2017-10-16 13:53 METAR KDUJ 161753Z AUTO 31012G19KT 10SM FEW043 SCT050 11/00 A3017 RMK AO2 SLP218
                 T01060000 10117 20056 58001 =
2017-10-16 12:53 METAR KDUJ 161653Z AUTO 33012G20KT 10SM FEW036 FEW045 11/01 A3018 RMK AO2 SLP222
                 T01060011 =
2017-10-16 11:53 METAR KDUJ 161553Z AUTO 31012G21KT 10SM BKN034 09/01 A3018 RMK AO2 SLP222
                 T00940011 =
2017-10-16 11:38 METAR KDUJ 161538Z AUTO 33013G23KT 10SM SCT028 BKN035 09/01 A3018 RMK AO2
                 T00890011 =
2017-10-16 10:53 METAR KDUJ 161453Z AUTO 33012KT 10SM BKN028 09/02 A3017 RMK AO2 SLP217 T00890022
                 51018 =
2017-10-16 10:24 METAR KDUJ 161424Z AUTO 32008G14KT 280V350 10SM BKN026 09/02 A3016 RMK AO2
                 T00890022 =
2017-10-16 09:53 METAR KDUJ 161353Z AUTO 32013G19KT 10SM SCT022 08/02 A3015 RMK AO2 SLP213
                 T00780022 =
2017-10-16 08:53 METAR KDUJ 161253Z AUTO 32007KT 10SM CLR 07/03 A3014 RMK AO2 SLP209 T00670033 =
2017-10-16 07:53 METAR KDUJ 161153Z AUTO VRB06KT 10SM OVC034 06/03 A3011 RMK AO2 SLP200 60001
                 70043 T00610033 10083 20061 53009 =
2017-10-16 07:28 METAR KDUJ 161128Z AUTO 31008KT 10SM OVC031 06/03 A3011 RMK AO2 T00610033 =
2017-10-16 06:53 METAR KDUJ 161053Z AUTO 31008KT 10SM OVC027 06/04 A3010 RMK AO2 SLP192 T00610039
                 =
2017-10-16 06:06 METAR KDUJ 161006Z AUTO 33007KT 10SM FEW010 BKN024 OVC032 06/04 A3009 RMK AO2
                 T00610044 =
2017-10-16 05:53 METAR KDUJ 160953Z AUTO 31007KT 10SM FEW008 BKN014 OVC031 06/04 A3009 RMK AO2
                 SLP186 T00610044 =
2017-10-16 05:51 METAR KDUJ 160951Z AUTO 31009KT 10SM FEW008 BKN014 OVC031 06/04 A3009 RMK AO2 =
2017-10-16 05:07 METAR KDUJ 160907Z AUTO 30009G16KT 6SM BR BKN008 BKN012 OVC018 07/05 A3007 RMK
                 AO2 T00670050 =
2017-10-16 04:53 METAR KDUJ 160853Z AUTO 32009G15KT 10SM SCT008 BKN012 OVC032 07/05 A3006 RMK AO2
                 SLP176 60001 T00670050 51009 =
2017-10-16 04:49 METAR KDUJ 160849Z AUTO 31007G15KT 10SM FEW009 BKN013 OVC032 07/05 A3006 RMK AO2
                 =
2017-10-16 04:36 METAR KDUJ 160836Z AUTO 31008KT 10SM FEW009 OVC030 07/06 A3005 RMK AO2 T00720056
                 =
2017-10-16 04:02 METAR KDUJ 160802Z AUTO 30006KT 3SM BR FEW008 SCT016 OVC023 07/05 A3004 RMK AO2
                 T00720050 =
2017-10-16 03:53 METAR KDUJ 160753Z AUTO 32011KT 4SM BR SCT008 BKN014 OVC021 07/05 A3004 RMK AO2
                 RAB35E49 SLP168 P0001 T00720050 =
2017-10-16 03:39 METAR KDUJ 160739Z AUTO 34013G18KT 4SM -RA BR SCT008 BKN014 OVC038 08/06 A3004
                 RMK AO2 RAB35 P0000 T00780056 =
2017-10-16 02:53 METAR KDUJ 160653Z AUTO 30009KT 10SM SCT027 OVC040 08/06 A3003 RMK AO2 SLP163
                 T00830061 =
2017-10-16 02:13 METAR KDUJ 160613Z AUTO 31007KT 10SM SCT026 OVC040 09/07 A3002 RMK AO2 T00890067
                 =
2017-10-16 01:53 METAR KDUJ 160553Z AUTO 33008G16KT 10SM SCT019 BKN024 OVC042 09/06 A3002 RMK AO2
                 RAE05 SLP159 P0000 60001 T00890061 10139 20089 53023 =
2017-10-16 01:20 METAR KDUJ 160520Z AUTO 33010G17KT 10SM SCT010 BKN015 OVC022 09/07 A3001 RMK AO2
                 RAE05 P0000 T00940067 =
2017-10-16 00:53 METAR KDUJ 160453Z AUTO 33011G17KT 3SM -RA BR BKN009 BKN013 OVC023 10/08 A2999
                 RMK AO2 PK WND 31026/0428 RAB32 SLP149 P0001 T01000083 402390100 =
2017-10-16 00:28 METAR KDUJ 160428Z AUTO 30016G26KT 10SM SCT016 BKN021 OVC050 12/08 A2997 RMK AO2
                 PK WND 31026/0428 T01170083 =
2017-10-16 00:08 METAR KDUJ 160408Z AUTO 28008KT 10SM FEW019 BKN031 OVC050 12/09 A2996 RMK AO2
                 T01220089 =
2017-10-15 23:53 METAR KDUJ 160353Z AUTO 27007KT 10SM FEW018 BKN024 BKN032 12/09 A2996 RMK AO2
                 SLP137 T01220089 =
2017-10-15 23:40 METAR KDUJ 160340Z AUTO 28009KT 10SM FEW024 SCT029 BKN040 12/09 A2995 RMK AO2
                 T01220089 =
2017-10-15 23:31 METAR KDUJ 160331Z AUTO 28009KT 10SM BKN026 BKN037 BKN045 12/09 A2995 RMK AO2
                 T01220089 =
2017-10-15 23:13 METAR KDUJ 160313Z AUTO 27008KT 10SM SCT028 BKN050 12/08 A2994 RMK AO2 T01220083
                 =
2017-10-15 22:53 METAR KDUJ 160253Z AUTO 29011G17KT 10SM BKN029 BKN050 13/09 A2994 RMK AO2 SLP133
                 60000 T01280089 51021 =
2017-10-15 22:46 METAR KDUJ 160246Z AUTO 28008G18KT 10SM BKN027 13/09 A2994 RMK AO2 T01280089 =
2017-10-15 22:03 METAR KDUJ 160203Z AUTO 30011G18KT 10SM SCT021 SCT030 OVC041 13/09 A2993 RMK AO2
                 T01330094 =
2017-10-15 21:53 METAR KDUJ 160153Z AUTO 29010KT 10SM SCT021 BKN028 OVC039 13/11 A2992 RMK AO2
                 SLP126 T01330106 =
2017-10-15 21:43 METAR KDUJ 160143Z AUTO 28008G18KT 10SM BKN023 BKN027 OVC110 14/11 A2993 RMK AO2
                 T01390106 =
2017-10-15 20:53 METAR KDUJ 160053Z AUTO 26009G20KT 10SM FEW018 BKN100 OVC110 14/11 A2990 RMK AO2
                 RAE2359 SLP120 P0000 T01390111 =
2017-10-15 20:34 METAR KDUJ 160034Z AUTO 28011KT 10SM SCT018 BKN034 OVC110 14/12 A2990 RMK AO2
                 RAE2359 P0000 T01390117 =

Support USWX by starting your Amazon purchase here.